sensor_id;sensor_type;location;lat;lon;timestamp;P1;durP1;ratioP1;P2;durP2;ratioP2
21581;SDS011;10952;50.836;4.348;2023-04-25T00:00:14;18.80;;;4.23;;
21581;SDS011;10952;50.836;4.348;2023-04-25T00:05:12;21.90;;;4.53;;
21581;SDS011;10952;50.836;4.348;2023-04-25T00:07:39;26.53;;;5.67;;
21581;SDS011;10952;50.836;4.348;2023-04-25T00:10:09;22.90;;;4.53;;
21581;SDS011;10952;50.836;4.348;2023-04-25T00:12:39;25.63;;;4.47;;
21581;SDS011;10952;50.836;4.348;2023-04-25T00:15:06;19.43;;;4.10;;
21581;SDS011;10952;50.836;4.348;2023-04-25T00:17:35;16.97;;;3.90;;
21581;SDS011;10952;50.836;4.348;2023-04-25T00:22:35;21.53;;;4.70;;
21581;SDS011;10952;50.836;4.348;2023-04-25T00:27:34;13.73;;;4.00;;
21581;SDS011;10952;50.836;4.348;2023-04-25T00:30:03;15.83;;;4.37;;
21581;SDS011;10952;50.836;4.348;2023-04-25T00:32:32;21.50;;;4.57;;
21581;SDS011;10952;50.836;4.348;2023-04-25T00:35:01;19.00;;;4.20;;
21581;SDS011;10952;50.836;4.348;2023-04-25T00:37:28;15.70;;;4.20;;
21581;SDS011;10952;50.836;4.348;2023-04-25T00:40:00;16.00;;;4.00;;
21581;SDS011;10952;50.836;4.348;2023-04-25T00:42:26;16.53;;;4.03;;
21581;SDS011;10952;50.836;4.348;2023-04-25T00:44:55;21.23;;;4.63;;
21581;SDS011;10952;50.836;4.348;2023-04-25T00:49:56;14.43;;;4.73;;
21581;SDS011;10952;50.836;4.348;2023-04-25T00:54:52;19.63;;;4.97;;
21581;SDS011;10952;50.836;4.348;2023-04-25T00:57:18;26.50;;;5.63;;
21581;SDS011;10952;50.836;4.348;2023-04-25T00:59:47;17.70;;;4.90;;
21581;SDS011;10952;50.836;4.348;2023-04-25T01:04:48;19.53;;;4.37;;
21581;SDS011;10952;50.836;4.348;2023-04-25T01:09:44;22.17;;;5.50;;
21581;SDS011;10952;50.836;4.348;2023-04-25T01:14:42;17.47;;;4.67;;
21581;SDS011;10952;50.836;4.348;2023-04-25T01:17:10;18.40;;;5.60;;
21581;SDS011;10952;50.836;4.348;2023-04-25T01:19:39;26.37;;;5.33;;
21581;SDS011;10952;50.836;4.348;2023-04-25T01:24:37;17.43;;;5.50;;
21581;SDS011;10952;50.836;4.348;2023-04-25T01:27:06;21.30;;;6.10;;
21581;SDS011;10952;50.836;4.348;2023-04-25T01:29:35;26.20;;;5.23;;
21581;SDS011;10952;50.836;4.348;2023-04-25T01:32:05;21.47;;;5.60;;
21581;SDS011;10952;50.836;4.348;2023-04-25T01:34:32;19.37;;;5.10;;
21581;SDS011;10952;50.836;4.348;2023-04-25T01:37:01;26.37;;;5.77;;
21581;SDS011;10952;50.836;4.348;2023-04-25T01:41:58;16.83;;;4.73;;
21581;SDS011;10952;50.836;4.348;2023-04-25T01:44:28;19.33;;;6.00;;
21581;SDS011;10952;50.836;4.348;2023-04-25T01:46:57;18.97;;;4.83;;
21581;SDS011;10952;50.836;4.348;2023-04-25T01:51:54;16.70;;;4.93;;
21581;SDS011;10952;50.836;4.348;2023-04-25T01:54:26;20.73;;;4.67;;
21581;SDS011;10952;50.836;4.348;2023-04-25T01:56:56;29.00;;;5.63;;
21581;SDS011;10952;50.836;4.348;2023-04-25T01:59:25;17.47;;;5.17;;
21581;SDS011;10952;50.836;4.348;2023-04-25T02:01:57;17.70;;;5.83;;
21581;SDS011;10952;50.836;4.348;2023-04-25T02:04:25;16.00;;;5.33;;
21581;SDS011;10952;50.836;4.348;2023-04-25T02:09:23;12.70;;;4.70;;
21581;SDS011;10952;50.836;4.348;2023-04-25T02:11:52;28.70;;;5.60;;
21581;SDS011;10952;50.836;4.348;2023-04-25T02:14:21;19.77;;;5.30;;
21581;SDS011;10952;50.836;4.348;2023-04-25T02:16:48;19.57;;;5.20;;
21581;SDS011;10952;50.836;4.348;2023-04-25T02:19:14;13.80;;;4.00;;
21581;SDS011;10952;50.836;4.348;2023-04-25T02:21:39;16.43;;;4.80;;
21581;SDS011;10952;50.836;4.348;2023-04-25T02:26:43;22.83;;;4.97;;
21581;SDS011;10952;50.836;4.348;2023-04-25T02:29:12;13.17;;;5.10;;
21581;SDS011;10952;50.836;4.348;2023-04-25T02:31:43;19.70;;;4.83;;
21581;SDS011;10952;50.836;4.348;2023-04-25T02:36:38;20.43;;;4.87;;
21581;SDS011;10952;50.836;4.348;2023-04-25T02:39:10;26.60;;;6.07;;
21581;SDS011;10952;50.836;4.348;2023-04-25T02:46:40;25.93;;;5.40;;
21581;SDS011;10952;50.836;4.348;2023-04-25T02:51:37;24.87;;;4.90;;
21581;SDS011;10952;50.836;4.348;2023-04-25T02:54:04;22.33;;;5.50;;
21581;SDS011;10952;50.836;4.348;2023-04-25T02:59:03;21.20;;;4.87;;
21581;SDS011;10952;50.836;4.348;2023-04-25T03:04:00;18.43;;;5.43;;
21581;SDS011;10952;50.836;4.348;2023-04-25T03:06:28;22.20;;;5.77;;
21581;SDS011;10952;50.836;4.348;2023-04-25T03:08:57;21.97;;;5.37;;
21581;SDS011;10952;50.836;4.348;2023-04-25T03:11:26;24.10;;;5.73;;
21581;SDS011;10952;50.836;4.348;2023-04-25T03:13:54;20.90;;;5.13;;
21581;SDS011;10952;50.836;4.348;2023-04-25T03:16:21;23.93;;;5.37;;
21581;SDS011;10952;50.836;4.348;2023-04-25T03:18:50;18.67;;;4.90;;
21581;SDS011;10952;50.836;4.348;2023-04-25T03:21:16;24.63;;;5.00;;
21581;SDS011;10952;50.836;4.348;2023-04-25T03:23:45;20.33;;;5.50;;
21581;SDS011;10952;50.836;4.348;2023-04-25T03:26:14;17.30;;;5.87;;
21581;SDS011;10952;50.836;4.348;2023-04-25T03:28:46;17.00;;;4.87;;
21581;SDS011;10952;50.836;4.348;2023-04-25T03:31:24;19.67;;;5.30;;
21581;SDS011;10952;50.836;4.348;2023-04-25T03:33:56;20.57;;;5.13;;
21581;SDS011;10952;50.836;4.348;2023-04-25T03:39:14;25.87;;;5.03;;
21581;SDS011;10952;50.836;4.348;2023-04-25T03:41:42;16.33;;;4.80;;
21581;SDS011;10952;50.836;4.348;2023-04-25T03:44:11;26.57;;;5.00;;
21581;SDS011;10952;50.836;4.348;2023-04-25T03:46:36;25.97;;;4.87;;
21581;SDS011;10952;50.836;4.348;2023-04-25T03:49:05;21.10;;;5.17;;
21581;SDS011;10952;50.836;4.348;2023-04-25T03:54:03;19.30;;;4.47;;
21581;SDS011;10952;50.836;4.348;2023-04-25T03:58:58;20.70;;;4.57;;
21581;SDS011;10952;50.836;4.348;2023-04-25T04:03:56;27.93;;;5.00;;
21581;SDS011;10952;50.836;4.348;2023-04-25T04:14:18;15.73;;;4.13;;
21581;SDS011;10952;50.836;4.348;2023-04-25T04:24:13;19.07;;;4.40;;
21581;SDS011;10952;50.836;4.348;2023-04-25T04:26:46;18.40;;;4.50;;
21581;SDS011;10952;50.836;4.348;2023-04-25T04:29:14;19.00;;;4.40;;
21581;SDS011;10952;50.836;4.348;2023-04-25T04:31:49;22.77;;;4.33;;
21581;SDS011;10952;50.836;4.348;2023-04-25T04:34:16;19.33;;;4.07;;
21581;SDS011;10952;50.836;4.348;2023-04-25T04:36:46;15.00;;;3.70;;
21581;SDS011;10952;50.836;4.348;2023-04-25T04:41:43;11.97;;;3.70;;
21581;SDS011;10952;50.836;4.348;2023-04-25T04:44:08;17.70;;;3.87;;
21581;SDS011;10952;50.836;4.348;2023-04-25T04:46:38;23.70;;;4.17;;
21581;SDS011;10952;50.836;4.348;2023-04-25T04:51:37;17.43;;;4.03;;
21581;SDS011;10952;50.836;4.348;2023-04-25T04:54:04;18.33;;;4.47;;
21581;SDS011;10952;50.836;4.348;2023-04-25T04:56:33;23.47;;;5.13;;
21581;SDS011;10952;50.836;4.348;2023-04-25T05:01:29;21.23;;;5.70;;
21581;SDS011;10952;50.836;4.348;2023-04-25T05:06:29;16.90;;;4.60;;
21581;SDS011;10952;50.836;4.348;2023-04-25T05:08:59;16.63;;;4.47;;
21581;SDS011;10952;50.836;4.348;2023-04-25T05:11:25;17.73;;;5.20;;
21581;SDS011;10952;50.836;4.348;2023-04-25T05:13:54;17.77;;;3.93;;
21581;SDS011;10952;50.836;4.348;2023-04-25T05:16:22;16.93;;;4.73;;
21581;SDS011;10952;50.836;4.348;2023-04-25T05:18:48;11.00;;;4.23;;
21581;SDS011;10952;50.836;4.348;2023-04-25T05:21:17;24.00;;;5.10;;
21581;SDS011;10952;50.836;4.348;2023-04-25T05:23:45;17.13;;;5.07;;
21581;SDS011;10952;50.836;4.348;2023-04-25T05:28:41;16.50;;;5.90;;
21581;SDS011;10952;50.836;4.348;2023-04-25T05:33:42;21.03;;;6.33;;
21581;SDS011;10952;50.836;4.348;2023-04-25T05:36:09;17.00;;;5.27;;
21581;SDS011;10952;50.836;4.348;2023-04-25T05:38:37;19.27;;;5.60;;
21581;SDS011;10952;50.836;4.348;2023-04-25T05:41:06;15.33;;;5.50;;
21581;SDS011;10952;50.836;4.348;2023-04-25T05:43:33;22.50;;;6.30;;
21581;SDS011;10952;50.836;4.348;2023-04-25T05:46:02;23.60;;;6.17;;
21581;SDS011;10952;50.836;4.348;2023-04-25T05:50:59;16.70;;;5.10;;
21581;SDS011;10952;50.836;4.348;2023-04-25T05:53:25;22.53;;;5.00;;
21581;SDS011;10952;50.836;4.348;2023-04-25T05:55:54;22.50;;;9.00;;
21581;SDS011;10952;50.836;4.348;2023-04-25T06:01:02;18.13;;;4.83;;
21581;SDS011;10952;50.836;4.348;2023-04-25T06:06:00;17.73;;;5.57;;
21581;SDS011;10952;50.836;4.348;2023-04-25T06:08:32;16.57;;;5.03;;
21581;SDS011;10952;50.836;4.348;2023-04-25T06:10:59;20.27;;;5.27;;
21581;SDS011;10952;50.836;4.348;2023-04-25T06:15:56;18.73;;;5.40;;
21581;SDS011;10952;50.836;4.348;2023-04-25T06:18:22;20.43;;;6.20;;
21581;SDS011;10952;50.836;4.348;2023-04-25T06:20:48;17.87;;;5.97;;
21581;SDS011;10952;50.836;4.348;2023-04-25T06:23:13;21.70;;;6.87;;
21581;SDS011;10952;50.836;4.348;2023-04-25T06:28:08;20.47;;;5.40;;
21581;SDS011;10952;50.836;4.348;2023-04-25T06:33:05;17.83;;;5.20;;
21581;SDS011;10952;50.836;4.348;2023-04-25T06:35:34;19.00;;;5.20;;
21581;SDS011;10952;50.836;4.348;2023-04-25T06:38:03;17.20;;;4.60;;
21581;SDS011;10952;50.836;4.348;2023-04-25T06:40:34;20.80;;;4.90;;
21581;SDS011;10952;50.836;4.348;2023-04-25T06:43:01;14.53;;;4.80;;
21581;SDS011;10952;50.836;4.348;2023-04-25T06:45:37;21.63;;;4.37;;
21581;SDS011;10952;50.836;4.348;2023-04-25T06:48:04;15.37;;;4.90;;
21581;SDS011;10952;50.836;4.348;2023-04-25T06:50:33;17.50;;;3.77;;
21581;SDS011;10952;50.836;4.348;2023-04-25T06:55:28;18.23;;;5.33;;
21581;SDS011;10952;50.836;4.348;2023-04-25T06:57:53;17.27;;;4.93;;
21581;SDS011;10952;50.836;4.348;2023-04-25T07:03:05;18.30;;;4.20;;
21581;SDS011;10952;50.836;4.348;2023-04-25T07:08:02;19.87;;;4.17;;
21581;SDS011;10952;50.836;4.348;2023-04-25T07:10:30;17.43;;;4.47;;
21581;SDS011;10952;50.836;4.348;2023-04-25T07:12:55;16.00;;;4.20;;
21581;SDS011;10952;50.836;4.348;2023-04-25T07:17:53;16.47;;;4.97;;
21581;SDS011;10952;50.836;4.348;2023-04-25T07:20:19;53.00;;;7.80;;
21581;SDS011;10952;50.836;4.348;2023-04-25T07:22:44;10.47;;;3.57;;
21581;SDS011;10952;50.836;4.348;2023-04-25T07:25:10;21.27;;;4.07;;
21581;SDS011;10952;50.836;4.348;2023-04-25T07:27:44;18.83;;;3.70;;
21581;SDS011;10952;50.836;4.348;2023-04-25T07:30:10;15.63;;;3.17;;
21581;SDS011;10952;50.836;4.348;2023-04-25T07:35:05;9.90;;;3.10;;
21581;SDS011;10952;50.836;4.348;2023-04-25T07:37:32;10.90;;;3.40;;
21581;SDS011;10952;50.836;4.348;2023-04-25T07:39:59;11.30;;;3.43;;
21581;SDS011;10952;50.836;4.348;2023-04-25T07:42:24;12.57;;;3.13;;
21581;SDS011;10952;50.836;4.348;2023-04-25T07:44:50;15.20;;;2.80;;
21581;SDS011;10952;50.836;4.348;2023-04-25T07:47:16;13.97;;;3.20;;
21581;SDS011;10952;50.836;4.348;2023-04-25T07:49:44;11.23;;;3.13;;
21581;SDS011;10952;50.836;4.348;2023-04-25T07:52:10;15.33;;;3.37;;
21581;SDS011;10952;50.836;4.348;2023-04-25T07:54:36;16.57;;;3.37;;
21581;SDS011;10952;50.836;4.348;2023-04-25T07:57:01;12.23;;;2.97;;
21581;SDS011;10952;50.836;4.348;2023-04-25T07:59:27;7.93;;;2.53;;
21581;SDS011;10952;50.836;4.348;2023-04-25T08:01:53;13.53;;;2.90;;
21581;SDS011;10952;50.836;4.348;2023-04-25T08:04:18;13.87;;;3.20;;
21581;SDS011;10952;50.836;4.348;2023-04-25T08:06:44;16.30;;;3.30;;
21581;SDS011;10952;50.836;4.348;2023-04-25T08:09:10;13.67;;;3.07;;
21581;SDS011;10952;50.836;4.348;2023-04-25T08:11:36;14.50;;;3.30;;
21581;SDS011;10952;50.836;4.348;2023-04-25T08:14:02;16.50;;;3.30;;
21581;SDS011;10952;50.836;4.348;2023-04-25T08:16:27;9.53;;;3.03;;
21581;SDS011;10952;50.836;4.348;2023-04-25T08:18:53;12.47;;;3.50;;
21581;SDS011;10952;50.836;4.348;2023-04-25T08:21:19;14.27;;;3.40;;
21581;SDS011;10952;50.836;4.348;2023-04-25T08:23:45;8.97;;;2.40;;
21581;SDS011;10952;50.836;4.348;2023-04-25T08:26:11;12.50;;;3.00;;
21581;SDS011;10952;50.836;4.348;2023-04-25T08:28:37;17.27;;;3.77;;
21581;SDS011;10952;50.836;4.348;2023-04-25T08:31:02;18.33;;;3.80;;
21581;SDS011;10952;50.836;4.348;2023-04-25T08:33:28;10.27;;;3.43;;
21581;SDS011;10952;50.836;4.348;2023-04-25T08:35:55;16.73;;;3.23;;
21581;SDS011;10952;50.836;4.348;2023-04-25T08:38:21;13.27;;;2.77;;
21581;SDS011;10952;50.836;4.348;2023-04-25T08:40:48;12.10;;;2.73;;
21581;SDS011;10952;50.836;4.348;2023-04-25T08:43:16;15.27;;;3.40;;
21581;SDS011;10952;50.836;4.348;2023-04-25T08:45:44;10.87;;;3.00;;
21581;SDS011;10952;50.836;4.348;2023-04-25T08:48:14;9.53;;;2.80;;
21581;SDS011;10952;50.836;4.348;2023-04-25T08:50:51;8.50;;;2.70;;
21581;SDS011;10952;50.836;4.348;2023-04-25T08:53:26;13.57;;;2.90;;
21581;SDS011;10952;50.836;4.348;2023-04-25T08:55:53;16.30;;;2.80;;
21581;SDS011;10952;50.836;4.348;2023-04-25T08:58:20;11.53;;;3.00;;
21581;SDS011;10952;50.836;4.348;2023-04-25T09:00:47;20.40;;;3.53;;
21581;SDS011;10952;50.836;4.348;2023-04-25T09:03:13;20.17;;;3.47;;
21581;SDS011;10952;50.836;4.348;2023-04-25T09:05:40;15.23;;;2.83;;
21581;SDS011;10952;50.836;4.348;2023-04-25T09:08:06;11.93;;;2.90;;
21581;SDS011;10952;50.836;4.348;2023-04-25T09:10:32;10.37;;;2.50;;
21581;SDS011;10952;50.836;4.348;2023-04-25T09:13:02;9.77;;;2.70;;
21581;SDS011;10952;50.836;4.348;2023-04-25T09:15:29;20.63;;;6.63;;
21581;SDS011;10952;50.836;4.348;2023-04-25T09:18:01;14.70;;;4.03;;
21581;SDS011;10952;50.836;4.348;2023-04-25T09:20:27;15.40;;;3.50;;
21581;SDS011;10952;50.836;4.348;2023-04-25T09:23:03;13.00;;;2.70;;
21581;SDS011;10952;50.836;4.348;2023-04-25T09:25:33;12.87;;;2.50;;
21581;SDS011;10952;50.836;4.348;2023-04-25T09:28:04;9.27;;;2.20;;
21581;SDS011;10952;50.836;4.348;2023-04-25T09:30:32;8.90;;;1.93;;
21581;SDS011;10952;50.836;4.348;2023-04-25T09:33:07;10.93;;;2.60;;
21581;SDS011;10952;50.836;4.348;2023-04-25T09:35:41;7.07;;;2.20;;
21581;SDS011;10952;50.836;4.348;2023-04-25T09:38:09;7.27;;;2.43;;
21581;SDS011;10952;50.836;4.348;2023-04-25T09:40:42;9.83;;;2.10;;
21581;SDS011;10952;50.836;4.348;2023-04-25T09:43:10;15.43;;;2.70;;
21581;SDS011;10952;50.836;4.348;2023-04-25T09:45:43;16.43;;;3.07;;
21581;SDS011;10952;50.836;4.348;2023-04-25T09:48:10;11.77;;;2.63;;
21581;SDS011;10952;50.836;4.348;2023-04-25T09:53:38;9.27;;;2.40;;
21581;SDS011;10952;50.836;4.348;2023-04-25T09:56:06;13.87;;;2.57;;
21581;SDS011;10952;50.836;4.348;2023-04-25T09:58:33;25.30;;;10.73;;
21581;SDS011;10952;50.836;4.348;2023-04-25T10:01:01;15.93;;;3.37;;
21581;SDS011;10952;50.836;4.348;2023-04-25T10:03:33;5.70;;;2.27;;
21581;SDS011;10952;50.836;4.348;2023-04-25T10:06:00;11.87;;;3.33;;
21581;SDS011;10952;50.836;4.348;2023-04-25T10:08:33;6.77;;;2.10;;
21581;SDS011;10952;50.836;4.348;2023-04-25T10:11:00;11.07;;;2.33;;
21581;SDS011;10952;50.836;4.348;2023-04-25T10:13:28;9.30;;;2.40;;
21581;SDS011;10952;50.836;4.348;2023-04-25T10:15:57;9.77;;;2.20;;
21581;SDS011;10952;50.836;4.348;2023-04-25T10:18:27;8.43;;;1.80;;
21581;SDS011;10952;50.836;4.348;2023-04-25T10:20:58;4.23;;;1.70;;
21581;SDS011;10952;50.836;4.348;2023-04-25T10:23:25;8.73;;;1.50;;
21581;SDS011;10952;50.836;4.348;2023-04-25T10:25:52;6.10;;;2.00;;
21581;SDS011;10952;50.836;4.348;2023-04-25T10:28:19;6.03;;;2.27;;
21581;SDS011;10952;50.836;4.348;2023-04-25T10:30:58;9.73;;;2.23;;
21581;SDS011;10952;50.836;4.348;2023-04-25T10:33:39;4.97;;;1.60;;
21581;SDS011;10952;50.836;4.348;2023-04-25T10:36:08;7.13;;;2.30;;
21581;SDS011;10952;50.836;4.348;2023-04-25T10:38:38;7.93;;;1.53;;
21581;SDS011;10952;50.836;4.348;2023-04-25T10:41:05;6.73;;;1.90;;
21581;SDS011;10952;50.836;4.348;2023-04-25T10:43:35;6.67;;;1.70;;
21581;SDS011;10952;50.836;4.348;2023-04-25T10:46:12;6.13;;;1.90;;
21581;SDS011;10952;50.836;4.348;2023-04-25T10:48:48;6.73;;;1.60;;
21581;SDS011;10952;50.836;4.348;2023-04-25T10:51:22;3.97;;;1.40;;
21581;SDS011;10952;50.836;4.348;2023-04-25T10:54:03;5.73;;;2.07;;
21581;SDS011;10952;50.836;4.348;2023-04-25T10:56:38;9.10;;;3.00;;
21581;SDS011;10952;50.836;4.348;2023-04-25T11:04:03;11.97;;;2.47;;
21581;SDS011;10952;50.836;4.348;2023-04-25T11:06:29;12.03;;;3.03;;
21581;SDS011;10952;50.836;4.348;2023-04-25T11:09:27;9.73;;;2.73;;
21581;SDS011;10952;50.836;4.348;2023-04-25T11:11:56;13.23;;;2.80;;
21581;SDS011;10952;50.836;4.348;2023-04-25T11:14:23;8.30;;;2.27;;
21581;SDS011;10952;50.836;4.348;2023-04-25T11:16:56;8.03;;;1.97;;
21581;SDS011;10952;50.836;4.348;2023-04-25T11:19:22;8.20;;;1.50;;
21581;SDS011;10952;50.836;4.348;2023-04-25T11:21:49;10.77;;;3.53;;
21581;SDS011;10952;50.836;4.348;2023-04-25T11:24:18;9.47;;;2.17;;
21581;SDS011;10952;50.836;4.348;2023-04-25T11:26:46;11.93;;;1.80;;
21581;SDS011;10952;50.836;4.348;2023-04-25T11:29:15;10.20;;;1.87;;
21581;SDS011;10952;50.836;4.348;2023-04-25T11:31:43;10.63;;;1.93;;
21581;SDS011;10952;50.836;4.348;2023-04-25T11:34:10;6.07;;;2.17;;
21581;SDS011;10952;50.836;4.348;2023-04-25T11:36:36;12.83;;;3.20;;
21581;SDS011;10952;50.836;4.348;2023-04-25T11:39:03;10.90;;;2.30;;
21581;SDS011;10952;50.836;4.348;2023-04-25T11:41:30;6.23;;;1.60;;
21581;SDS011;10952;50.836;4.348;2023-04-25T11:43:56;11.57;;;2.07;;
21581;SDS011;10952;50.836;4.348;2023-04-25T11:46:22;8.37;;;2.10;;
21581;SDS011;10952;50.836;4.348;2023-04-25T11:48:47;7.07;;;2.00;;
21581;SDS011;10952;50.836;4.348;2023-04-25T11:51:15;8.13;;;2.03;;
21581;SDS011;10952;50.836;4.348;2023-04-25T11:53:41;8.83;;;1.70;;
21581;SDS011;10952;50.836;4.348;2023-04-25T11:56:10;9.37;;;2.60;;
21581;SDS011;10952;50.836;4.348;2023-04-25T12:01:26;10.17;;;2.10;;
21581;SDS011;10952;50.836;4.348;2023-04-25T12:03:56;8.90;;;2.20;;
21581;SDS011;10952;50.836;4.348;2023-04-25T12:06:25;7.03;;;1.80;;
21581;SDS011;10952;50.836;4.348;2023-04-25T12:09:02;4.13;;;1.80;;
21581;SDS011;10952;50.836;4.348;2023-04-25T12:11:32;5.17;;;1.70;;
21581;SDS011;10952;50.836;4.348;2023-04-25T12:14:04;7.70;;;1.87;;
21581;SDS011;10952;50.836;4.348;2023-04-25T12:16:39;4.77;;;1.47;;
21581;SDS011;10952;50.836;4.348;2023-04-25T12:19:06;7.07;;;1.70;;
21581;SDS011;10952;50.836;4.348;2023-04-25T12:21:33;7.03;;;2.10;;
21581;SDS011;10952;50.836;4.348;2023-04-25T12:24:18;5.37;;;1.87;;
21581;SDS011;10952;50.836;4.348;2023-04-25T12:29:20;7.50;;;2.00;;
21581;SDS011;10952;50.836;4.348;2023-04-25T12:31:46;4.97;;;1.30;;
21581;SDS011;10952;50.836;4.348;2023-04-25T12:34:12;8.07;;;2.27;;
21581;SDS011;10952;50.836;4.348;2023-04-25T12:36:38;6.47;;;1.87;;
21581;SDS011;10952;50.836;4.348;2023-04-25T12:39:04;4.37;;;1.30;;
21581;SDS011;10952;50.836;4.348;2023-04-25T12:41:30;5.70;;;1.43;;
21581;SDS011;10952;50.836;4.348;2023-04-25T12:43:56;4.30;;;1.20;;
21581;SDS011;10952;50.836;4.348;2023-04-25T12:46:22;8.53;;;1.50;;
21581;SDS011;10952;50.836;4.348;2023-04-25T12:48:49;4.47;;;1.97;;
21581;SDS011;10952;50.836;4.348;2023-04-25T12:51:15;6.33;;;1.90;;
21581;SDS011;10952;50.836;4.348;2023-04-25T12:53:40;8.67;;;2.27;;
21581;SDS011;10952;50.836;4.348;2023-04-25T12:56:07;7.33;;;1.70;;
21581;SDS011;10952;50.836;4.348;2023-04-25T12:58:33;8.30;;;1.80;;
21581;SDS011;10952;50.836;4.348;2023-04-25T13:00:59;7.17;;;2.83;;
21581;SDS011;10952;50.836;4.348;2023-04-25T13:03:25;9.37;;;2.43;;
21581;SDS011;10952;50.836;4.348;2023-04-25T13:05:51;9.53;;;2.17;;
21581;SDS011;10952;50.836;4.348;2023-04-25T13:08:18;8.73;;;2.13;;
21581;SDS011;10952;50.836;4.348;2023-04-25T13:10:44;7.77;;;1.80;;
21581;SDS011;10952;50.836;4.348;2023-04-25T13:13:10;4.50;;;1.73;;
21581;SDS011;10952;50.836;4.348;2023-04-25T13:15:36;5.03;;;1.73;;
21581;SDS011;10952;50.836;4.348;2023-04-25T13:18:05;6.87;;;2.10;;
21581;SDS011;10952;50.836;4.348;2023-04-25T13:20:31;7.47;;;1.60;;
21581;SDS011;10952;50.836;4.348;2023-04-25T13:22:56;6.70;;;1.73;;
21581;SDS011;10952;50.836;4.348;2023-04-25T13:25:22;9.07;;;1.73;;
21581;SDS011;10952;50.836;4.348;2023-04-25T13:27:48;3.83;;;1.83;;
21581;SDS011;10952;50.836;4.348;2023-04-25T13:30:14;6.40;;;2.07;;
21581;SDS011;10952;50.836;4.348;2023-04-25T13:32:40;3.03;;;1.30;;
21581;SDS011;10952;50.836;4.348;2023-04-25T13:35:09;6.67;;;1.97;;
21581;SDS011;10952;50.836;4.348;2023-04-25T13:37:38;3.27;;;1.30;;
21581;SDS011;10952;50.836;4.348;2023-04-25T13:40:05;6.13;;;2.03;;
21581;SDS011;10952;50.836;4.348;2023-04-25T13:42:35;3.90;;;1.37;;
21581;SDS011;10952;50.836;4.348;2023-04-25T13:45:01;5.53;;;1.60;;
21581;SDS011;10952;50.836;4.348;2023-04-25T13:47:28;5.83;;;1.90;;
21581;SDS011;10952;50.836;4.348;2023-04-25T13:49:54;4.67;;;1.50;;
21581;SDS011;10952;50.836;4.348;2023-04-25T13:52:19;3.97;;;1.20;;
21581;SDS011;10952;50.836;4.348;2023-04-25T13:54:45;5.17;;;1.60;;
21581;SDS011;10952;50.836;4.348;2023-04-25T13:57:11;5.10;;;1.47;;
21581;SDS011;10952;50.836;4.348;2023-04-25T13:59:37;4.47;;;1.70;;
21581;SDS011;10952;50.836;4.348;2023-04-25T14:02:04;7.80;;;2.03;;
21581;SDS011;10952;50.836;4.348;2023-04-25T14:04:29;5.53;;;1.50;;
21581;SDS011;10952;50.836;4.348;2023-04-25T14:06:55;5.83;;;1.87;;
21581;SDS011;10952;50.836;4.348;2023-04-25T14:09:21;4.93;;;1.43;;
21581;SDS011;10952;50.836;4.348;2023-04-25T14:11:51;6.27;;;1.87;;
21581;SDS011;10952;50.836;4.348;2023-04-25T14:14:17;4.23;;;1.40;;
21581;SDS011;10952;50.836;4.348;2023-04-25T14:16:43;6.97;;;1.23;;
21581;SDS011;10952;50.836;4.348;2023-04-25T14:19:09;4.50;;;1.20;;
21581;SDS011;10952;50.836;4.348;2023-04-25T14:21:35;3.90;;;1.20;;
21581;SDS011;10952;50.836;4.348;2023-04-25T14:24:01;5.63;;;1.93;;
21581;SDS011;10952;50.836;4.348;2023-04-25T14:26:26;8.83;;;1.80;;
21581;SDS011;10952;50.836;4.348;2023-04-25T14:28:52;5.53;;;1.80;;
21581;SDS011;10952;50.836;4.348;2023-04-25T14:31:18;8.60;;;3.97;;
21581;SDS011;10952;50.836;4.348;2023-04-25T14:33:43;11.03;;;4.97;;
21581;SDS011;10952;50.836;4.348;2023-04-25T14:36:10;11.03;;;5.57;;
21581;SDS011;10952;50.836;4.348;2023-04-25T14:38:36;7.43;;;2.17;;
21581;SDS011;10952;50.836;4.348;2023-04-25T14:41:01;5.73;;;1.53;;
21581;SDS011;10952;50.836;4.348;2023-04-25T14:43:28;4.60;;;1.40;;
21581;SDS011;10952;50.836;4.348;2023-04-25T14:45:53;12.97;;;3.27;;
21581;SDS011;10952;50.836;4.348;2023-04-25T14:48:19;5.10;;;1.90;;
21581;SDS011;10952;50.836;4.348;2023-04-25T14:50:45;5.33;;;1.70;;
21581;SDS011;10952;50.836;4.348;2023-04-25T14:53:12;2.93;;;1.20;;
21581;SDS011;10952;50.836;4.348;2023-04-25T14:55:38;6.13;;;2.20;;
21581;SDS011;10952;50.836;4.348;2023-04-25T14:58:05;10.27;;;2.50;;
21581;SDS011;10952;50.836;4.348;2023-04-25T15:00:31;6.17;;;1.67;;
21581;SDS011;10952;50.836;4.348;2023-04-25T15:02:58;5.67;;;1.63;;
21581;SDS011;10952;50.836;4.348;2023-04-25T15:05:24;9.70;;;1.87;;
21581;SDS011;10952;50.836;4.348;2023-04-25T15:07:50;4.30;;;1.70;;
21581;SDS011;10952;50.836;4.348;2023-04-25T15:10:17;4.27;;;1.73;;
21581;SDS011;10952;50.836;4.348;2023-04-25T15:12:44;5.60;;;1.67;;
21581;SDS011;10952;50.836;4.348;2023-04-25T15:15:11;9.10;;;1.70;;
21581;SDS011;10952;50.836;4.348;2023-04-25T15:17:37;3.33;;;2.27;;
21581;SDS011;10952;50.836;4.348;2023-04-25T15:20:07;6.37;;;1.60;;
21581;SDS011;10952;50.836;4.348;2023-04-25T15:22:41;7.90;;;2.17;;
21581;SDS011;10952;50.836;4.348;2023-04-25T15:25:10;12.40;;;1.87;;
21581;SDS011;10952;50.836;4.348;2023-04-25T15:27:36;5.93;;;1.50;;
21581;SDS011;10952;50.836;4.348;2023-04-25T15:30:06;4.97;;;1.57;;
21581;SDS011;10952;50.836;4.348;2023-04-25T15:32:32;4.47;;;2.40;;
21581;SDS011;10952;50.836;4.348;2023-04-25T15:35:02;4.97;;;1.77;;
21581;SDS011;10952;50.836;4.348;2023-04-25T15:37:30;7.63;;;2.07;;
21581;SDS011;10952;50.836;4.348;2023-04-25T15:42:36;8.43;;;1.83;;
21581;SDS011;10952;50.836;4.348;2023-04-25T15:45:06;4.17;;;1.57;;
21581;SDS011;10952;50.836;4.348;2023-04-25T15:47:33;7.50;;;2.80;;
21581;SDS011;10952;50.836;4.348;2023-04-25T15:49:59;4.83;;;1.50;;
21581;SDS011;10952;50.836;4.348;2023-04-25T15:52:26;5.47;;;1.53;;
21581;SDS011;10952;50.836;4.348;2023-04-25T15:54:57;7.10;;;1.33;;
21581;SDS011;10952;50.836;4.348;2023-04-25T15:57:23;7.17;;;1.63;;
21581;SDS011;10952;50.836;4.348;2023-04-25T15:59:49;5.47;;;2.00;;
21581;SDS011;10952;50.836;4.348;2023-04-25T16:02:16;30.23;;;19.83;;
21581;SDS011;10952;50.836;4.348;2023-04-25T16:04:42;5.07;;;1.77;;
21581;SDS011;10952;50.836;4.348;2023-04-25T16:07:09;7.27;;;1.80;;
21581;SDS011;10952;50.836;4.348;2023-04-25T16:09:35;9.33;;;1.63;;
21581;SDS011;10952;50.836;4.348;2023-04-25T16:12:02;6.87;;;1.40;;
21581;SDS011;10952;50.836;4.348;2023-04-25T16:14:29;4.70;;;1.40;;
21581;SDS011;10952;50.836;4.348;2023-04-25T16:16:55;2.90;;;1.23;;
21581;SDS011;10952;50.836;4.348;2023-04-25T16:19:21;9.17;;;1.90;;
21581;SDS011;10952;50.836;4.348;2023-04-25T16:21:46;11.13;;;1.80;;
21581;SDS011;10952;50.836;4.348;2023-04-25T16:24:12;9.77;;;1.80;;
21581;SDS011;10952;50.836;4.348;2023-04-25T16:26:39;6.13;;;1.23;;
21581;SDS011;10952;50.836;4.348;2023-04-25T16:29:06;5.47;;;1.30;;
21581;SDS011;10952;50.836;4.348;2023-04-25T16:31:35;5.17;;;1.27;;
21581;SDS011;10952;50.836;4.348;2023-04-25T16:34:02;4.13;;;1.60;;
21581;SDS011;10952;50.836;4.348;2023-04-25T16:36:28;4.80;;;1.60;;
21581;SDS011;10952;50.836;4.348;2023-04-25T16:38:53;6.80;;;2.20;;
21581;SDS011;10952;50.836;4.348;2023-04-25T16:41:19;6.03;;;1.90;;
21581;SDS011;10952;50.836;4.348;2023-04-25T16:43:45;3.93;;;1.53;;
21581;SDS011;10952;50.836;4.348;2023-04-25T16:46:11;3.93;;;1.37;;
21581;SDS011;10952;50.836;4.348;2023-04-25T16:48:36;3.07;;;1.37;;
21581;SDS011;10952;50.836;4.348;2023-04-25T16:51:02;6.97;;;1.80;;
21581;SDS011;10952;50.836;4.348;2023-04-25T16:53:27;5.57;;;1.70;;
21581;SDS011;10952;50.836;4.348;2023-04-25T16:55:53;6.50;;;1.90;;